Savanna, Illinois
Current Conditions -  °F | °C
As of 8:15 AM on Tuesday 27 Jan 2015 (Local Time) from KSFY Reporting Station
Overcast Overcast  
Wind Chill: 18°   Ceiling: 1400
Heat Index: 28°   Visibility: 10mi
Dew Point: 23°   Wind: 10mph
Humidity: 83%   Direction: 20°NNE
Pressure: 30.13"   Gusts: 18mph
Location:  42.09°N, 90.16°W
Report Text: KSFY 271415Z AUTO 02009G16KT 10SM OVC014 M02/M05 A3013 RMK AO2 T10231048
Loading
Personal Weather Stations






























Interactive Weather Map New forecast layout! Learn more

10-Day Weather Forecast

Advertisements
Track Severe Weather on mobile